Time;durP1;ratioP1;P1;durP2;ratioP2;P2;SDS_P1;SDS_P2;PMS_P1;PMS_P2;Temp;Humidity;BMP_temperature;BMP_pressure;BME280_temperature;BME280_humidity;BME280_pressure;Samples;Min_cycle;Max_cycle;Signal;HPM_P1;HPM_P2
2023/10/11 00:01:39;;;;;;;;;;;20.20;72.20;;;;;;5093051;28;19920;-71
2023/10/11 00:04:23;;;;;;;;;;;20.20;72.20;;;;;;5094484;28;19920;-71
2023/10/11 00:06:49;;;;;;;;;;;20.20;72.20;;;;;;5093236;28;19981;-71
2023/10/11 00:09:16;;;;;;;;;;;20.20;72.20;;;;;;5093262;28;20018;-72
2023/10/11 00:11:42;;;;;;;;;;;20.20;72.10;;;;;;5093492;28;20299;-71
2023/10/11 00:14:07;;;;;;;;;;;20.20;72.10;;;;;;5094443;28;20011;-72
2023/10/11 00:16:35;;;;;;;;;;;20.20;72.20;;;;;;5093204;28;19943;-71
2023/10/11 00:19:01;;;;;;;;;;;20.20;72.20;;;;;;5092484;28;19920;-72
2023/10/11 00:21:40;;;;;;;;;;;20.10;72.10;;;;;;5092763;28;19916;-71
2023/10/11 00:24:07;;;;;;;;;;;20.10;72.10;;;;;;5094185;28;20357;-71
2023/10/11 00:26:34;;;;;;;;;;;20.10;72.20;;;;;;5093061;28;19930;-72
2023/10/11 00:29:00;;;;;;;;;;;20.10;72.10;;;;;;5114159;28;19920;-71
2023/10/11 00:31:26;;;;;;;;;;;20.10;72.20;;;;;;5096460;28;20330;-71
2023/10/11 00:33:55;;;;;;;;;;;20.10;72.10;;;;;;5096271;28;19959;-71
2023/10/11 00:36:24;;;;;;;;;;;20.10;72.20;;;;;;5096358;28;19920;-71
2023/10/11 00:38:51;;;;;;;;;;;20.10;72.10;;;;;;5095898;28;19927;-71
2023/10/11 00:41:18;;;;;;;;;;;20.10;72.20;;;;;;5095971;28;20006;-71
2023/10/11 00:43:47;;;;;;;;;;;20.10;72.20;;;;;;5095683;28;19926;-71
2023/10/11 00:46:14;;;;;;;;;;;20.10;72.20;;;;;;5113764;28;19945;-71
2023/10/11 00:49:12;;;;;;;;;;;20.00;72.20;;;;;;5095301;28;19963;-71
2023/10/11 00:51:29;;;;;;;;;;;20.00;72.20;;;;;;5094903;28;19970;-71
2023/10/11 00:53:56;;;;;;;;;;;20.10;72.30;;;;;;5113710;28;20010;-71
2023/10/11 00:56:21;;;;;;;;;;;20.10;72.30;;;;;;5095855;28;19915;-72
2023/10/11 00:58:49;;;;;;;;;;;20.10;72.20;;;;;;5095471;28;19965;-72
2023/10/11 01:01:15;;;;;;;;;;;20.10;72.20;;;;;;5095797;28;19920;-71
2023/10/11 01:03:41;;;;;;;;;;;20.00;72.20;;;;;;5095255;28;20393;-71
2023/10/11 01:06:10;;;;;;;;;;;20.00;72.20;;;;;;5129196;27;20065;-71
2023/10/11 01:08:38;;;;;;;;;;;20.00;72.20;;;;;;5112953;28;19920;-71
2023/10/11 01:11:05;;;;;;;;;;;20.00;72.20;;;;;;5095002;28;19947;-71
2023/10/11 01:13:30;;;;;;;;;;;20.00;72.30;;;;;;5113163;28;19927;-71
2023/10/11 01:15:56;;;;;;;;;;;20.00;72.30;;;;;;5095100;28;19919;-71
2023/10/11 01:18:21;;;;;;;;;;;20.00;72.30;;;;;;5128851;27;19963;-72
2023/10/11 01:20:47;;;;;;;;;;;20.00;73.00;;;;;;5094846;28;19927;-71
2023/10/11 01:23:12;;;;;;;;;;;20.00;72.30;;;;;;5095007;28;19926;-71
2023/10/11 01:25:38;;;;;;;;;;;20.00;72.30;;;;;;5112884;28;19967;-71
2023/10/11 01:28:03;;;;;;;;;;;20.00;72.30;;;;;;5094228;28;19924;-71
2023/10/11 01:30:29;;;;;;;;;;;20.00;72.30;;;;;;5094698;28;20337;-71
2023/10/11 01:32:55;;;;;;;;;;;20.00;72.30;;;;;;5094594;28;19924;-71
2023/10/11 01:35:20;;;;;;;;;;;20.00;72.30;;;;;;5094785;28;19920;-71
2023/10/11 01:37:46;;;;;;;;;;;20.00;72.30;;;;;;5094889;28;19960;-71
2023/10/11 01:40:20;;;;;;;;;;;20.00;72.30;;;;;;5094679;28;19926;-71
2023/10/11 01:42:49;;;;;;;;;;;20.00;72.30;;;;;;5112664;28;19920;-71
2023/10/11 01:45:16;;;;;;;;;;;20.00;72.40;;;;;;5112695;28;19930;-71
2023/10/11 01:47:41;;;;;;;;;;;20.00;73.10;;;;;;5093975;28;19924;-71
2023/10/11 01:50:07;;;;;;;;;;;20.00;72.40;;;;;;5094630;28;19920;-72
2023/10/11 01:52:34;;;;;;;;;;;20.00;72.40;;;;;;5093026;28;19927;-71
2023/10/11 01:55:01;;;;;;;;;;;20.00;72.40;;;;;;5094191;28;19984;-71
2023/10/11 01:57:27;;;;;;;;;;;20.00;72.40;;;;;;5093730;28;19948;-71
2023/10/11 01:59:52;;;;;;;;;;;19.90;72.40;;;;;;5127790;27;20217;-71
2023/10/11 02:02:18;;;;;;;;;;;20.00;72.40;;;;;;5112320;28;19919;-71
2023/10/11 02:04:44;;;;;;;;;;;20.00;72.50;;;;;;5092152;28;20370;-71
2023/10/11 02:07:09;;;;;;;;;;;20.00;72.50;;;;;;5093738;28;19920;-71
2023/10/11 02:09:34;;;;;;;;;;;20.00;72.50;;;;;;5113264;28;19922;-71
2023/10/11 02:12:00;;;;;;;;;;;19.90;72.40;;;;;;5128327;27;19922;-71
2023/10/11 02:14:29;;;;;;;;;;;19.90;72.40;;;;;;5128054;27;19916;-71
2023/10/11 02:16:54;;;;;;;;;;;19.90;72.40;;;;;;5094011;28;19955;-71
2023/10/11 02:19:23;;;;;;;;;;;19.90;72.40;;;;;;5111710;28;19966;-72
2023/10/11 02:21:48;;;;;;;;;;;19.90;72.40;;;;;;5094464;28;20018;-71
2023/10/11 02:24:15;;;;;;;;;;;19.90;72.40;;;;;;5095217;28;19958;-71
2023/10/11 02:26:41;;;;;;;;;;;19.90;72.40;;;;;;5112554;28;19915;-71
2023/10/11 02:29:15;;;;;;;;;;;19.90;72.40;;;;;;5094668;28;19963;-71
2023/10/11 02:31:40;;;;;;;;;;;19.90;72.40;;;;;;5094093;28;20358;-71
2023/10/11 02:34:13;;;;;;;;;;;19.90;72.40;;;;;;5093677;28;19965;-71
2023/10/11 02:36:42;;;;;;;;;;;19.90;72.40;;;;;;5111531;28;19916;-71
2023/10/11 02:39:08;;;;;;;;;;;19.90;72.40;;;;;;5093340;28;19923;-71
2023/10/11 02:41:37;;;;;;;;;;;19.90;72.40;;;;;;5093702;28;19916;-71
2023/10/11 02:44:02;;;;;;;;;;;19.90;72.40;;;;;;5093932;28;20367;-71
2023/10/11 02:46:32;;;;;;;;;;;19.90;72.40;;;;;;5094502;28;19964;-71
2023/10/11 02:49:07;;;;;;;;;;;19.90;72.40;;;;;;5095060;28;20378;-71
2023/10/11 02:51:33;;;;;;;;;;;19.90;72.40;;;;;;5097784;28;19959;-71
2023/10/11 02:54:04;;;;;;;;;;;19.90;72.50;;;;;;5098290;28;19981;-71
2023/10/11 02:56:29;;;;;;;;;;;19.90;72.50;;;;;;5098131;28;19916;-71
2023/10/11 02:58:55;;;;;;;;;;;19.90;72.50;;;;;;5097724;28;20312;-71
2023/10/11 03:01:20;;;;;;;;;;;19.90;73.20;;;;;;5097312;28;19915;-71
2023/10/11 03:03:48;;;;;;;;;;;19.80;72.40;;;;;;5098159;28;19965;-71
2023/10/11 03:06:13;;;;;;;;;;;19.90;72.50;;;;;;5116705;28;20295;-71
2023/10/11 03:08:40;;;;;;;;;;;19.90;72.50;;;;;;5115219;28;19927;-71
2023/10/11 03:11:09;;;;;;;;;;;20.10;72.30;;;;;;5097693;28;20328;-71
2023/10/11 03:13:49;;;;;;;;;;;20.40;71.70;;;;;;5115467;28;19924;-71
2023/10/11 03:16:17;;;;;;;;;;;20.60;71.00;;;;;;5114423;28;20034;-71
2023/10/11 03:18:46;;;;;;;;;;;20.90;70.40;;;;;;5097355;28;19919;-72
2023/10/11 03:21:17;;;;;;;;;;;21.10;69.50;;;;;;5097304;28;19919;-73
2023/10/11 03:23:44;;;;;;;;;;;21.30;68.80;;;;;;5097762;28;19915;-71
2023/10/11 03:26:43;;;;;;;;;;;21.60;68.10;;;;;;5096852;28;20014;-71
2023/10/11 03:28:58;;;;;;;;;;;21.70;67.50;;;;;;5096763;28;20367;-71
2023/10/11 03:31:29;;;;;;;;;;;21.90;66.90;;;;;;5096951;28;20127;-71
2023/10/11 03:33:56;;;;;;;;;;;22.00;66.60;;;;;;5097269;28;20382;-71
2023/10/11 03:36:28;;;;;;;;;;;22.10;66.20;;;;;;5097522;28;20019;-71
2023/10/11 03:38:54;;;;;;;;;;;22.20;65.90;;;;;;5115429;28;19924;-71
2023/10/11 03:41:28;;;;;;;;;;;22.20;65.70;;;;;;5096662;28;19968;-71
2023/10/11 03:43:54;;;;;;;;;;;22.30;65.70;;;;;;5096852;28;19920;-71
2023/10/11 03:46:24;;;;;;;;;;;22.20;65.60;;;;;;5096840;28;19949;-71
2023/10/11 03:48:56;;;;;;;;;;;22.10;65.60;;;;;;5096581;28;19923;-71
2023/10/11 03:51:22;;;;;;;;;;;22.10;65.80;;;;;;5131080;27;19972;-71
2023/10/11 03:53:48;;;;;;;;;;;22.00;65.90;;;;;;5096590;28;19927;-71
2023/10/11 03:56:15;;;;;;;;;;;22.00;66.10;;;;;;5115182;28;19920;-71
2023/10/11 03:58:40;;;;;;;;;;;21.90;66.30;;;;;;5114775;28;20311;-71
2023/10/11 04:01:12;;;;;;;;;;;21.70;66.40;;;;;;5130028;27;19934;-71
2023/10/11 04:03:41;;;;;;;;;;;21.70;66.60;;;;;;5096019;28;19923;-71
2023/10/11 04:06:14;;;;;;;;;;;21.60;66.80;;;;;;5113414;28;20294;-71
2023/10/11 04:08:42;;;;;;;;;;;21.50;67.00;;;;;;5114548;28;19942;-71
2023/10/11 04:11:14;;;;;;;;;;;21.50;67.20;;;;;;5115076;28;20358;-71
2023/10/11 04:13:44;;;;;;;;;;;21.40;67.50;;;;;;5095732;28;19973;-71
2023/10/11 04:16:10;;;;;;;;;;;21.40;67.60;;;;;;5096318;28;20278;-71
2023/10/11 04:18:37;;;;;;;;;;;21.30;67.70;;;;;;5097043;28;19965;-71
2023/10/11 04:23:58;;;;;;;;;;;21.30;68.00;;;;;;5088690;28;19913;-71
2023/10/11 04:29:18;;;;;;;;;;;21.20;68.10;;;;;;5089553;28;19912;-71
2023/10/11 04:32:19;;;;;;;;;;;21.20;68.20;;;;;;5088614;28;19920;-71
2023/10/11 04:34:32;;;;;;;;;;;21.20;68.20;;;;;;5087551;28;19920;-71
2023/10/11 04:36:59;;;;;;;;;;;21.10;68.20;;;;;;5088595;28;19990;-71
2023/10/11 04:39:28;;;;;;;;;;;21.10;68.20;;;;;;5088302;28;20268;-70
2023/10/11 04:41:57;;;;;;;;;;;21.10;68.20;;;;;;5088838;28;20276;-70
2023/10/11 04:44:24;;;;;;;;;;;21.10;68.10;;;;;;5087218;28;19932;-71
2023/10/11 04:47:06;;;;;;;;;;;21.20;68.20;;;;;;5088772;28;19921;-71
2023/10/11 04:49:31;;;;;;;;;;;21.20;68.10;;;;;;5089120;28;19967;-71
2023/10/11 04:51:57;;;;;;;;;;;21.20;68.10;;;;;;5087750;28;19967;-71
2023/10/11 04:54:35;;;;;;;;;;;21.20;68.00;;;;;;5087761;28;19974;-71
2023/10/11 04:57:06;;;;;;;;;;;21.20;68.00;;;;;;5087671;28;19924;-71
2023/10/11 05:02:22;;;;;;;;;;;21.20;67.80;;;;;;5109613;27;19912;-71
2023/10/11 05:04:51;;;;;;;;;;;21.30;67.80;;;;;;5108170;28;19969;-71
2023/10/11 05:07:19;;;;;;;;;;;21.30;67.70;;;;;;5108784;28;19955;-72
2023/10/11 05:09:52;;;;;;;;;;;21.30;67.60;;;;;;5107775;28;19928;-71
2023/10/11 05:12:19;;;;;;;;;;;21.30;67.60;;;;;;5108431;28;19924;-71
2023/10/11 05:22:49;;;;;;;;;;;21.30;67.40;;;;;;5109048;27;19918;-71
2023/10/11 05:28:44;;;;;;;;;;;21.30;67.50;;;;;;5109320;27;20264;-71
2023/10/11 05:31:00;;;;;;;;;;;21.30;67.40;;;;;;5088110;28;19924;-71
2023/10/11 05:36:16;;;;;;;;;;;21.30;67.40;;;;;;5107948;28;19971;-71
2023/10/11 05:52:29;;;;;;;;;;;21.30;67.40;;;;;;5106828;28;20363;-71
2023/10/11 05:54:55;;;;;;;;;;;21.30;67.40;;;;;;5107449;28;19927;-71
2023/10/11 05:57:23;;;;;;;;;;;21.30;67.40;;;;;;5109264;28;19920;-71
2023/10/11 05:59:49;;;;;;;;;;;21.20;67.30;;;;;;5107817;28;19946;-71
2023/10/11 06:02:14;;;;;;;;;;;21.20;67.40;;;;;;5107134;28;19924;-71
2023/10/11 06:04:40;;;;;;;;;;;21.30;67.40;;;;;;5107099;28;19926;-71
2023/10/11 06:07:06;;;;;;;;;;;21.20;67.30;;;;;;5106902;28;19963;-71
2023/10/11 06:09:39;;;;;;;;;;;21.30;67.30;;;;;;5108722;28;19916;-71
2023/10/11 06:12:09;;;;;;;;;;;21.30;67.30;;;;;;5108340;28;19982;-71
2023/10/11 06:14:36;;;;;;;;;;;21.20;67.20;;;;;;5108318;28;19927;-71
2023/10/11 06:17:05;;;;;;;;;;;21.30;67.30;;;;;;5107885;28;20493;-72
2023/10/11 06:19:30;;;;;;;;;;;21.30;67.30;;;;;;5108087;28;19931;-72
2023/10/11 06:21:56;;;;;;;;;;;21.30;67.30;;;;;;5107823;28;19924;-71
2023/10/11 06:24:22;;;;;;;;;;;21.30;67.30;;;;;;5107568;28;19919;-72
2023/10/11 06:29:29;;;;;;;;;;;21.30;67.20;;;;;;5109698;27;19912;-72
2023/10/11 06:31:55;;;;;;;;;;;21.30;67.10;;;;;;5108738;28;19920;-71
2023/10/11 06:37:02;;;;;;;;;;;21.30;67.20;;;;;;5109246;27;19920;-71
2023/10/11 06:42:23;;;;;;;;;;;21.30;67.20;;;;;;5110101;27;19919;-72
2023/10/11 06:47:36;;;;;;;;;;;21.20;67.20;;;;;;5109202;27;19918;-71
2023/10/11 06:50:17;;;;;;;;;;;21.30;67.20;;;;;;5108493;28;19920;-72
2023/10/11 06:52:44;;;;;;;;;;;21.30;67.30;;;;;;5108228;28;19920;-71
2023/10/11 06:57:55;;;;;;;;;;;21.20;67.20;;;;;;5089450;28;19912;-71
2023/10/11 07:00:22;;;;;;;;;;;21.20;67.20;;;;;;5088557;28;19933;-71
2023/10/11 07:02:49;;;;;;;;;;;21.20;67.30;;;;;;5088598;28;20123;-71
2023/10/11 07:05:25;;;;;;;;;;;21.20;67.20;;;;;;5087810;28;19924;-71
2023/10/11 07:07:52;;;;;;;;;;;21.20;67.20;;;;;;5087605;28;20014;-72
2023/10/11 07:10:33;;;;;;;;;;;21.20;67.20;;;;;;5088369;28;19926;-71
2023/10/11 07:13:07;;;;;;;;;;;21.20;67.20;;;;;;5088119;28;19926;-72
2023/10/11 07:15:37;;;;;;;;;;;21.20;67.20;;;;;;5087031;28;19928;-71
2023/10/11 07:18:08;;;;;;;;;;;21.20;67.20;;;;;;5087643;28;19921;-72
2023/10/11 07:20:58;;;;;;;;;;;21.20;67.30;;;;;;5088543;28;19951;-71
2023/10/11 07:23:20;;;;;;;;;;;21.20;67.30;;;;;;5087681;28;20398;-71
2023/10/11 07:25:59;;;;;;;;;;;21.20;67.30;;;;;;5087503;28;19928;-71
2023/10/11 07:28:41;;;;;;;;;;;21.20;67.30;;;;;;5066613;28;19920;-71
2023/10/11 07:31:16;;;;;;;;;;;21.20;67.30;;;;;;5085622;28;19920;-71
2023/10/11 07:33:42;;;;;;;;;;;21.20;67.40;;;;;;5086881;28;19916;-71
2023/10/11 07:36:11;;;;;;;;;;;21.20;67.40;;;;;;5086580;28;20010;-70
2023/10/11 07:38:43;;;;;;;;;;;21.20;67.40;;;;;;5088024;28;20272;-71
2023/10/11 07:41:17;;;;;;;;;;;21.20;67.40;;;;;;5088926;28;20482;-71
2023/10/11 07:43:45;;;;;;;;;;;21.20;67.40;;;;;;5086582;28;19973;-71
2023/10/11 07:46:11;;;;;;;;;;;21.20;67.40;;;;;;5086870;28;19924;-71
2023/10/11 07:48:37;;;;;;;;;;;21.20;67.40;;;;;;5087234;28;19931;-71
2023/10/11 07:51:09;;;;;;;;;;;21.20;67.40;;;;;;5087391;28;19921;-72
2023/10/11 07:53:40;;;;;;;;;;;21.20;67.50;;;;;;5088149;28;19956;-71
2023/10/11 07:56:05;;;;;;;;;;;21.20;67.40;;;;;;5086403;28;20399;-71
2023/10/11 07:58:34;;;;;;;;;;;21.20;67.40;;;;;;5087300;28;19928;-71
2023/10/11 08:01:04;;;;;;;;;;;21.20;67.50;;;;;;5087470;28;20011;-71
2023/10/11 08:03:35;;;;;;;;;;;21.10;67.40;;;;;;5087099;28;20066;-71
2023/10/11 08:06:05;;;;;;;;;;;21.10;67.50;;;;;;5086058;28;19924;-72
2023/10/11 08:08:31;;;;;;;;;;;21.10;67.50;;;;;;5076775;28;20315;-71
2023/10/11 08:10:58;;;;;;;;;;;21.10;67.50;;;;;;5073618;28;19968;-71
2023/10/11 08:13:24;;;;;;;;;;;21.10;67.50;;;;;;5073173;28;19920;-71
2023/10/11 08:15:59;;;;;;;;;;;21.10;67.50;;;;;;5072794;28;19946;-73
2023/10/11 08:18:26;;;;;;;;;;;21.10;67.60;;;;;;5073039;28;20413;-72
2023/10/11 08:20:52;;;;;;;;;;;21.10;67.60;;;;;;5074772;28;19920;-71
2023/10/11 08:23:33;;;;;;;;;;;21.10;67.70;;;;;;5073100;28;20372;-71
2023/10/11 08:26:05;;;;;;;;;;;21.10;67.70;;;;;;5070632;28;19920;-71
2023/10/11 08:28:34;;;;;;;;;;;21.10;67.70;;;;;;5074015;28;20003;-71
2023/10/11 08:31:00;;;;;;;;;;;21.10;67.70;;;;;;5072834;28;19924;-71
2023/10/11 08:33:30;;;;;;;;;;;21.10;67.70;;;;;;5072514;28;20004;-71
2023/10/11 08:35:56;;;;;;;;;;;21.10;67.70;;;;;;5073974;28;19950;-72
2023/10/11 08:38:25;;;;;;;;;;;21.10;67.70;;;;;;5073056;28;20447;-71
2023/10/11 08:40:57;;;;;;;;;;;21.10;67.70;;;;;;5074614;28;19924;-71
2023/10/11 08:43:23;;;;;;;;;;;21.10;67.80;;;;;;5072736;28;19928;-72
2023/10/11 08:46:00;;;;;;;;;;;21.00;67.70;;;;;;5071765;28;19920;-71
2023/10/11 08:48:27;;;;;;;;;;;21.00;67.80;;;;;;5072605;28;19925;-71
2023/10/11 08:50:55;;;;;;;;;;;21.10;67.90;;;;;;5072079;28;19928;-71
2023/10/11 08:53:21;;;;;;;;;;;21.10;68.00;;;;;;5073106;28;20045;-72
2023/10/11 08:55:51;;;;;;;;;;;21.10;67.80;;;;;;5072441;28;20019;-72
2023/10/11 08:58:23;;;;;;;;;;;21.10;67.80;;;;;;5071451;28;20042;-71
2023/10/11 09:00:52;;;;;;;;;;;21.10;67.80;;;;;;5073632;28;19963;-71
2023/10/11 09:03:18;;;;;;;;;;;21.10;67.90;;;;;;5072541;28;19927;-72
2023/10/11 09:05:44;;;;;;;;;;;21.10;67.90;;;;;;5072123;28;19920;-71
2023/10/11 09:08:27;;;;;;;;;;;21.10;68.00;;;;;;5073062;28;20029;-71
2023/10/11 09:11:06;;;;;;;;;;;21.00;67.90;;;;;;5072571;28;19920;-71
2023/10/11 09:13:36;;;;;;;;;;;21.10;68.00;;;;;;5072070;28;19921;-72
2023/10/11 09:16:08;;;;;;;;;;;21.10;68.10;;;;;;5070758;28;19925;-71
2023/10/11 09:18:34;;;;;;;;;;;21.00;68.00;;;;;;5071551;28;19920;-72
2023/10/11 09:21:35;;;;;;;;;;;21.00;68.00;;;;;;5088097;28;19921;-72
2023/10/11 09:23:46;;;;;;;;;;;21.00;68.00;;;;;;5072747;28;20306;-71
2023/10/11 09:26:13;;;;;;;;;;;21.00;68.00;;;;;;5071619;28;19931;-71
2023/10/11 09:28:41;;;;;;;;;;;21.00;68.00;;;;;;5071733;28;19982;-71
2023/10/11 09:31:10;;;;;;;;;;;21.00;68.10;;;;;;5073262;28;19920;-71
2023/10/11 09:33:38;;;;;;;;;;;21.00;68.10;;;;;;5071585;28;20027;-71
2023/10/11 09:36:04;;;;;;;;;;;21.00;68.20;;;;;;5072341;28;19972;-71
2023/10/11 09:38:38;;;;;;;;;;;21.00;68.20;;;;;;5071645;28;20279;-72
2023/10/11 09:41:07;;;;;;;;;;;21.00;68.30;;;;;;5073359;28;20373;-71
2023/10/11 09:43:42;;;;;;;;;;;21.00;68.30;;;;;;5071543;28;19921;-71
2023/10/11 09:46:11;;;;;;;;;;;21.00;68.30;;;;;;5071507;28;20494;-71
2023/10/11 09:48:38;;;;;;;;;;;21.00;68.30;;;;;;5071145;28;19944;-71
2023/10/11 09:51:08;;;;;;;;;;;21.00;68.30;;;;;;5072001;28;19948;-71
2023/10/11 09:53:35;;;;;;;;;;;21.00;68.30;;;;;;5071735;28;19928;-71
2023/10/11 09:56:06;;;;;;;;;;;21.00;68.40;;;;;;5070844;28;19924;-72
2023/10/11 09:58:37;;;;;;;;;;;21.00;68.40;;;;;;5072625;28;19927;-71
2023/10/11 10:01:08;;;;;;;;;;;21.00;68.40;;;;;;5071798;28;19920;-71
2023/10/11 10:03:38;;;;;;;;;;;21.00;68.50;;;;;;5070976;28;19927;-72
2023/10/11 10:06:05;;;;;;;;;;;21.00;68.50;;;;;;5072109;28;19921;-71
2023/10/11 10:08:31;;;;;;;;;;;21.00;68.50;;;;;;5069861;28;20014;-72
2023/10/11 10:10:57;;;;;;;;;;;21.00;68.60;;;;;;5071265;28;19994;-72
2023/10/11 10:13:24;;;;;;;;;;;20.90;68.50;;;;;;5071478;28;19928;-71
2023/10/11 10:15:52;;;;;;;;;;;20.90;68.50;;;;;;5071511;28;19977;-72
2023/10/11 10:18:19;;;;;;;;;;;21.00;68.60;;;;;;5070277;28;19920;-72
2023/10/11 10:20:46;;;;;;;;;;;20.90;68.60;;;;;;5070754;28;19921;-72
2023/10/11 10:28:57;;;;;;;;;;;21.00;68.70;;;;;;5109091;27;19931;-71
2023/10/11 10:31:24;;;;;;;;;;;21.00;68.70;;;;;;5108397;28;20018;-72
2023/10/11 10:36:45;;;;;;;;;;;21.00;68.70;;;;;;5108669;27;19918;-71
2023/10/11 10:42:12;;;;;;;;;;;21.00;68.70;;;;;;5109587;27;19912;-72
2023/10/11 10:44:49;;;;;;;;;;;21.00;68.70;;;;;;5108260;28;19920;-71
2023/10/11 10:47:20;;;;;;;;;;;21.00;68.80;;;;;;5107641;28;20379;-72
2023/10/11 10:49:51;;;;;;;;;;;21.00;68.70;;;;;;5108642;28;19971;-72
2023/10/11 10:52:17;;;;;;;;;;;21.00;68.80;;;;;;5109030;28;19981;-72
2023/10/11 10:55:03;;;;;;;;;;;21.00;68.70;;;;;;5108576;28;19930;-72
2023/10/11 10:57:31;;;;;;;;;;;20.90;68.80;;;;;;5107545;28;19920;-72
2023/10/11 10:59:58;;;;;;;;;;;20.90;69.50;;;;;;5107438;28;19924;-72
2023/10/11 11:02:23;;;;;;;;;;;20.90;68.80;;;;;;5108548;28;20026;-72
2023/10/11 11:04:49;;;;;;;;;;;20.90;68.90;;;;;;5108481;28;20434;-72
2023/10/11 11:07:22;;;;;;;;;;;20.90;68.90;;;;;;5108947;28;19927;-72
2023/10/11 11:09:49;;;;;;;;;;;20.90;68.90;;;;;;5108737;28;19920;-72
2023/10/11 11:12:14;;;;;;;;;;;20.90;68.90;;;;;;5109777;28;19920;-72
2023/10/11 11:14:56;;;;;;;;;;;20.90;68.90;;;;;;5109361;28;20391;-72
2023/10/11 11:17:23;;;;;;;;;;;20.90;69.00;;;;;;5108047;28;19920;-72
2023/10/11 11:20:28;;;;;;;;;;;20.90;69.10;;;;;;5107507;28;19961;-72
2023/10/11 11:22:57;;;;;;;;;;;20.90;69.10;;;;;;5107821;28;19920;-72
2023/10/11 11:28:15;;;;;;;;;;;20.80;69.20;;;;;;5090545;28;19919;-72
2023/10/11 11:30:43;;;;;;;;;;;20.80;69.30;;;;;;5088649;28;20012;-71
2023/10/11 11:33:29;;;;;;;;;;;20.70;69.40;;;;;;5088862;28;19921;-72
2023/10/11 11:35:55;;;;;;;;;;;20.70;69.50;;;;;;5088297;28;19924;-72
2023/10/11 11:38:21;;;;;;;;;;;20.70;69.70;;;;;;5087829;28;19943;-72
2023/10/11 11:40:47;;;;;;;;;;;20.60;69.80;;;;;;5087611;28;20342;-72
2023/10/11 11:43:17;;;;;;;;;;;20.60;69.90;;;;;;5086923;28;20395;-72
2023/10/11 11:45:44;;;;;;;;;;;20.60;70.00;;;;;;5086996;28;20387;-72
2023/10/11 11:48:10;;;;;;;;;;;20.50;70.10;;;;;;5087729;28;19920;-72
2023/10/11 11:50:36;;;;;;;;;;;20.50;70.20;;;;;;5087388;28;19927;-72
2023/10/11 11:53:03;;;;;;;;;;;20.50;70.30;;;;;;5087751;28;19921;-72
2023/10/11 11:55:28;;;;;;;;;;;20.50;70.40;;;;;;5087289;28;19939;-72
2023/10/11 11:57:54;;;;;;;;;;;20.50;70.50;;;;;;5088688;28;19916;-72
2023/10/11 12:03:08;;;;;;;;;;;20.40;70.60;;;;;;5109298;27;20268;-72
2023/10/11 12:05:37;;;;;;;;;;;20.40;70.70;;;;;;5108149;28;20019;-72
2023/10/11 12:08:04;;;;;;;;;;;20.30;70.80;;;;;;5108754;28;19920;-72
2023/10/11 12:10:32;;;;;;;;;;;20.40;70.90;;;;;;5108280;28;19923;-72
2023/10/11 12:13:05;;;;;;;;;;;20.40;71.00;;;;;;5108588;28;19934;-72
2023/10/11 12:15:31;;;;;;;;;;;20.40;71.10;;;;;;5107882;28;19919;-72
2023/10/11 12:17:57;;;;;;;;;;;20.30;71.10;;;;;;5108024;28;19977;-71
2023/10/11 12:20:22;;;;;;;;;;;20.30;71.20;;;;;;5109154;28;19924;-72
2023/10/11 12:22:50;;;;;;;;;;;20.30;71.30;;;;;;5109168;28;19935;-72
2023/10/11 12:25:24;;;;;;;;;;;20.30;71.30;;;;;;5109095;28;19924;-72
2023/10/11 12:27:50;;;;;;;;;;;20.30;71.40;;;;;;5109219;28;19919;-72
2023/10/11 12:30:23;;;;;;;;;;;20.20;71.40;;;;;;5109073;28;19989;-72
2023/10/11 12:32:49;;;;;;;;;;;20.20;71.50;;;;;;5107915;28;19920;-72
2023/10/11 12:35:15;;;;;;;;;;;20.20;71.60;;;;;;5108992;28;20290;-72
2023/10/11 12:37:40;;;;;;;;;;;20.20;71.70;;;;;;5107682;28;19966;-72
2023/10/11 12:40:13;;;;;;;;;;;20.20;71.70;;;;;;5107538;28;19920;-71
2023/10/11 12:42:39;;;;;;;;;;;20.20;71.80;;;;;;5107529;28;20447;-71
2023/10/11 12:45:07;;;;;;;;;;;20.20;71.80;;;;;;5108815;28;19931;-72
2023/10/11 12:47:34;;;;;;;;;;;20.20;71.90;;;;;;5108917;28;19920;-72
2023/10/11 12:50:00;;;;;;;;;;;20.20;71.90;;;;;;5108191;28;19922;-72
2023/10/11 12:52:30;;;;;;;;;;;20.20;72.00;;;;;;5107956;28;20262;-73
2023/10/11 12:54:56;;;;;;;;;;;20.20;72.00;;;;;;5108595;28;19974;-72
2023/10/11 12:57:23;;;;;;;;;;;20.10;72.00;;;;;;5107294;28;19920;-72
2023/10/11 12:59:48;;;;;;;;;;;20.20;72.10;;;;;;5107452;28;19998;-72
2023/10/11 13:02:21;;;;;;;;;;;20.20;72.10;;;;;;5107229;28;19931;-73
2023/10/11 13:04:47;;;;;;;;;;;20.20;72.10;;;;;;5107275;28;20413;-72
2023/10/11 13:07:13;;;;;;;;;;;20.10;72.20;;;;;;5107236;28;20321;-72
2023/10/11 13:09:40;;;;;;;;;;;20.10;72.20;;;;;;5107416;28;19924;-71
2023/10/11 13:12:06;;;;;;;;;;;20.10;72.20;;;;;;5108152;28;20011;-72
2023/10/11 13:14:33;;;;;;;;;;;20.10;72.30;;;;;;5092629;28;20338;-73
2023/10/11 13:16:59;;;;;;;;;;;20.10;72.30;;;;;;5094221;28;19923;-73
2023/10/11 13:19:25;;;;;;;;;;;20.10;72.40;;;;;;5093601;28;20397;-72
2023/10/11 13:21:53;;;;;;;;;;;20.10;72.40;;;;;;5092788;28;19924;-72
2023/10/11 13:24:22;;;;;;;;;;;20.10;72.40;;;;;;5093528;28;19986;-72
2023/10/11 13:26:48;;;;;;;;;;;20.10;72.40;;;;;;5093625;28;20375;-72
2023/10/11 13:29:16;;;;;;;;;;;20.10;72.40;;;;;;5094260;28;20003;-73
2023/10/11 13:31:43;;;;;;;;;;;20.10;72.40;;;;;;5093459;28;19927;-72
2023/10/11 13:34:09;;;;;;;;;;;20.10;72.50;;;;;;5093389;28;19924;-71
2023/10/11 13:36:34;;;;;;;;;;;20.10;72.50;;;;;;5092920;28;19927;-72
2023/10/11 13:39:00;;;;;;;;;;;20.10;72.60;;;;;;5093453;28;19927;-72
2023/10/11 13:41:28;;;;;;;;;;;20.10;72.60;;;;;;5094177;28;20074;-72
2023/10/11 13:43:55;;;;;;;;;;;20.10;72.60;;;;;;5093268;28;19920;-72
2023/10/11 13:46:20;;;;;;;;;;;20.10;72.60;;;;;;5093371;28;20271;-72
2023/10/11 13:48:47;;;;;;;;;;;20.10;72.70;;;;;;5093388;28;19920;-72
2023/10/11 13:51:20;;;;;;;;;;;20.10;72.70;;;;;;5094190;28;19920;-73
2023/10/11 13:53:45;;;;;;;;;;;20.00;72.60;;;;;;5093069;28;19928;-71
2023/10/11 13:56:14;;;;;;;;;;;20.10;72.70;;;;;;5092996;28;19924;-72
2023/10/11 13:58:45;;;;;;;;;;;20.10;72.70;;;;;;5093084;28;19989;-72
2023/10/11 14:01:36;;;;;;;;;;;20.00;72.70;;;;;;5092336;28;20013;-72
2023/10/11 14:04:04;;;;;;;;;;;20.00;72.70;;;;;;5092440;28;19920;-71
2023/10/11 14:06:41;;;;;;;;;;;20.10;72.80;;;;;;5094051;28;19920;-73
2023/10/11 14:09:16;;;;;;;;;;;20.10;72.80;;;;;;5093047;28;20007;-72
2023/10/11 14:11:46;;;;;;;;;;;20.10;72.80;;;;;;5092801;28;19946;-73
2023/10/11 14:14:12;;;;;;;;;;;20.10;72.90;;;;;;5092787;28;19919;-72
2023/10/11 14:16:38;;;;;;;;;;;20.00;72.90;;;;;;5092470;28;19920;-73
2023/10/11 14:19:08;;;;;;;;;;;20.10;72.90;;;;;;5093700;28;20014;-72
2023/10/11 14:21:36;;;;;;;;;;;20.10;73.00;;;;;;5092229;28;20317;-72
2023/10/11 14:24:05;;;;;;;;;;;20.10;72.90;;;;;;5092004;28;20416;-72
2023/10/11 14:26:33;;;;;;;;;;;20.10;73.00;;;;;;5092030;28;19923;-72
2023/10/11 14:28:59;;;;;;;;;;;20.10;73.00;;;;;;5092758;28;20398;-72
2023/10/11 14:31:24;;;;;;;;;;;20.10;73.00;;;;;;5093762;28;20010;-72
2023/10/11 14:33:52;;;;;;;;;;;20.10;73.10;;;;;;5092142;28;20397;-72
2023/10/11 14:36:23;;;;;;;;;;;20.10;73.10;;;;;;5092671;28;19916;-72
2023/10/11 14:38:51;;;;;;;;;;;20.10;73.10;;;;;;5091121;28;19920;-72
2023/10/11 14:41:21;;;;;;;;;;;20.10;73.10;;;;;;5091295;28;20310;-72
2023/10/11 14:43:47;;;;;;;;;;;20.10;73.10;;;;;;5092568;28;19920;-72
2023/10/11 14:46:14;;;;;;;;;;;20.10;73.10;;;;;;5091727;28;20017;-72
2023/10/11 14:48:39;;;;;;;;;;;20.10;73.20;;;;;;5093134;28;20341;-72
2023/10/11 14:51:06;;;;;;;;;;;20.10;73.20;;;;;;5091598;28;20016;-72
2023/10/11 14:53:33;;;;;;;;;;;20.10;73.10;;;;;;5092015;28;19952;-72
2023/10/11 14:56:03;;;;;;;;;;;20.10;73.20;;;;;;5091428;28;20022;-72
2023/10/11 14:58:28;;;;;;;;;;;20.10;73.20;;;;;;5092550;28;19985;-72
2023/10/11 15:00:55;;;;;;;;;;;20.00;73.20;;;;;;5090313;28;20158;-72
2023/10/11 15:03:20;;;;;;;;;;;20.10;73.30;;;;;;5091029;28;19950;-72
2023/10/11 15:05:45;;;;;;;;;;;20.10;73.30;;;;;;5091060;28;19920;-72
2023/10/11 15:08:15;;;;;;;;;;;20.10;73.30;;;;;;5092971;28;19943;-72
2023/10/11 15:10:43;;;;;;;;;;;20.00;73.30;;;;;;5091923;28;20002;-71
2023/10/11 15:13:11;;;;;;;;;;;20.10;73.30;;;;;;5092096;28;19990;-73
2023/10/11 15:15:36;;;;;;;;;;;20.10;73.30;;;;;;5091043;28;19920;-73
2023/10/11 15:18:03;;;;;;;;;;;20.00;73.30;;;;;;5091830;28;20168;-72
2023/10/11 15:20:30;;;;;;;;;;;20.00;73.30;;;;;;5090154;28;20288;-72
2023/10/11 15:22:56;;;;;;;;;;;20.10;73.30;;;;;;5090451;28;19924;-72
2023/10/11 15:25:21;;;;;;;;;;;20.10;73.30;;;;;;5090954;28;20011;-73
2023/10/11 15:27:47;;;;;;;;;;;20.10;73.30;;;;;;5091321;28;19938;-72
2023/10/11 15:30:13;;;;;;;;;;;20.10;73.40;;;;;;5091341;28;20402;-72
2023/10/11 15:32:39;;;;;;;;;;;20.10;73.40;;;;;;5092582;28;19950;-72